Etusivu
METAR-TAF:

METAR-TAF

Lentoasemat :

Afonsos

Rio de Janeiro, Rio de Janeiro, Brasilia

Leveyspiiri: 22-52S, Pituuspiiri: 043-22W, korkeus merenpinnasta: 34 m

Tämänhetkinen sää

Tämä raportti tehtiin 29 minuuttia sitten, kello 16.00 UTC
Tuuli 2 kn pohjoisesta
Lämpötila 26°C
Kosteus 61%
Ilmanpaine 1019 hPa
Näkyvyys 10 km tai enemmän
Muutamia pilviä 3000 ft:n korkeudessa

METAR: SBAF 141600Z 36002KT 9999 FEW030 26/18 Q1019

Aika: 13:29 (16:29 UTC)

Sääennuste

Tämä raportti tehtiin 7 tuntia ja 29 minuuttia sitten, kello 09.00 UTC
Ennuste voimassa 14. päivästä klo 12 UTC - 14. päivään klo 24 UTC
Tuuli 6 kn koillisesta
Näkyvyys 10 km tai enemmän
Hajonneita pilviä 1600 ft:n korkeudessa
Ajoittain
14. päivästä klo 12 UTC - 14. päivään klo 15 UTC
Hajonneita pilviä 1000 ft:n korkeudessa

TAF: SBAF 140900Z 1412/1424 04006KT 9999 BKN016 TX25/1415Z TN19/1424Z TEMPO 1412/1415 BKN010 RMK PDZ

Säähavainnot ja -ennusteet yli 4000 lentoasemalta (METAR- ja TAF-raportit).

Käytössä olevat sääasemat on merkitty karttaan keltaisilla ja punaisilla pisteillä.

Aseta hiiri pisteen päälle nähdäksesi sääaseman nimen.

Klikkaa sitten nähdäksesi säähavainnot ja -ennusteet.

Kartan vaihtaminen: klikkaa mustalla rastilla varustettuja vihreitä pisteitä, niin voit zoomata sisään; viivalla varustettua vihreää pistettä, niin voit zoomata ulos tai vihreitä nuolia, niin pääset viereisille kartoille.


METAR-TAF: